sensor_id;sensor_type;location;lat;lon;timestamp;temperature;humidity
63899;HTU21D;50070;-32.946;-60.652;2023-09-19T00:00:43;17.75;39.23
63899;HTU21D;50070;-32.946;-60.652;2023-09-19T00:03:10;17.64;39.72
63899;HTU21D;50070;-32.946;-60.652;2023-09-19T00:05:38;17.40;41.22
63899;HTU21D;50070;-32.946;-60.652;2023-09-19T00:08:06;17.48;41.23
63899;HTU21D;50070;-32.946;-60.652;2023-09-19T00:10:34;17.39;42.01
63899;HTU21D;50070;-32.946;-60.652;2023-09-19T00:13:04;17.34;42.23
63899;HTU21D;50070;-32.946;-60.652;2023-09-19T00:15:37;17.23;42.69
63899;HTU21D;50070;-32.946;-60.652;2023-09-19T00:18:05;17.41;42.13
63899;HTU21D;50070;-32.946;-60.652;2023-09-19T00:20:38;17.23;42.20
63899;HTU21D;50070;-32.946;-60.652;2023-09-19T00:23:05;17.28;42.16
63899;HTU21D;50070;-32.946;-60.652;2023-09-19T00:25:35;17.44;41.70
63899;HTU21D;50070;-32.946;-60.652;2023-09-19T00:28:04;17.63;41.34
63899;HTU21D;50070;-32.946;-60.652;2023-09-19T00:30:30;17.65;41.83
63899;HTU21D;50070;-32.946;-60.652;2023-09-19T00:32:59;17.24;43.91
63899;HTU21D;50070;-32.946;-60.652;2023-09-19T00:35:27;17.19;44.43
63899;HTU21D;50070;-32.946;-60.652;2023-09-19T00:37:54;17.08;45.06
63899;HTU21D;50070;-32.946;-60.652;2023-09-19T00:40:21;17.10;45.17
63899;HTU21D;50070;-32.946;-60.652;2023-09-19T00:42:49;17.09;45.71
63899;HTU21D;50070;-32.946;-60.652;2023-09-19T00:45:17;16.77;47.34
63899;HTU21D;50070;-32.946;-60.652;2023-09-19T00:47:46;16.85;47.85
63899;HTU21D;50070;-32.946;-60.652;2023-09-19T00:50:19;16.80;48.76
63899;HTU21D;50070;-32.946;-60.652;2023-09-19T00:52:48;16.94;48.68
63899;HTU21D;50070;-32.946;-60.652;2023-09-19T00:55:16;16.99;49.18
63899;HTU21D;50070;-32.946;-60.652;2023-09-19T00:57:47;17.01;49.55
63899;HTU21D;50070;-32.946;-60.652;2023-09-19T01:00:17;16.57;51.45
63899;HTU21D;50070;-32.946;-60.652;2023-09-19T01:02:46;16.71;51.74
63899;HTU21D;50070;-32.946;-60.652;2023-09-19T01:05:13;16.77;51.65
63899;HTU21D;50070;-32.946;-60.652;2023-09-19T01:07:40;16.93;51.66
63899;HTU21D;50070;-32.946;-60.652;2023-09-19T01:10:13;16.56;53.88
63899;HTU21D;50070;-32.946;-60.652;2023-09-19T01:21:15;16.01;59.10
63899;HTU21D;50070;-32.946;-60.652;2023-09-19T01:27:52;16.13;58.63
63899;HTU21D;50070;-32.946;-60.652;2023-09-19T01:30:13;16.61;55.26
63899;HTU21D;50070;-32.946;-60.652;2023-09-19T01:32:41;16.47;55.69
63899;HTU21D;50070;-32.946;-60.652;2023-09-19T01:35:09;16.22;57.28
63899;HTU21D;50070;-32.946;-60.652;2023-09-19T01:37:39;16.00;59.30
63899;HTU21D;50070;-32.946;-60.652;2023-09-19T01:40:12;16.19;58.19
63899;HTU21D;50070;-32.946;-60.652;2023-09-19T01:42:51;15.90;60.54
63899;HTU21D;50070;-32.946;-60.652;2023-09-19T01:45:26;16.11;59.55
63899;HTU21D;50070;-32.946;-60.652;2023-09-19T01:47:55;16.05;60.59
63899;HTU21D;50070;-32.946;-60.652;2023-09-19T01:50:52;15.88;62.25
63899;HTU21D;50070;-32.946;-60.652;2023-09-19T01:53:22;16.02;61.36
63899;HTU21D;50070;-32.946;-60.652;2023-09-19T01:55:50;15.76;62.98
63899;HTU21D;50070;-32.946;-60.652;2023-09-19T01:58:54;15.81;63.27
63899;HTU21D;50070;-32.946;-60.652;2023-09-19T02:01:24;15.83;63.60
63899;HTU21D;50070;-32.946;-60.652;2023-09-19T02:03:53;15.96;62.92
63899;HTU21D;50070;-32.946;-60.652;2023-09-19T02:06:20;16.21;60.26
63899;HTU21D;50070;-32.946;-60.652;2023-09-19T02:08:47;15.73;64.40
63899;HTU21D;50070;-32.946;-60.652;2023-09-19T02:11:15;15.82;64.01
63899;HTU21D;50070;-32.946;-60.652;2023-09-19T02:13:42;15.87;64.10
63899;HTU21D;50070;-32.946;-60.652;2023-09-19T02:16:10;15.95;62.87
63899;HTU21D;50070;-32.946;-60.652;2023-09-19T02:18:37;15.73;64.05
63899;HTU21D;50070;-32.946;-60.652;2023-09-19T02:21:05;15.52;66.27
63899;HTU21D;50070;-32.946;-60.652;2023-09-19T02:23:36;15.44;66.05
63899;HTU21D;50070;-32.946;-60.652;2023-09-19T02:26:02;15.19;68.84
63899;HTU21D;50070;-32.946;-60.652;2023-09-19T02:28:32;15.12;69.31
63899;HTU21D;50070;-32.946;-60.652;2023-09-19T02:30:59;15.08;69.97
63899;HTU21D;50070;-32.946;-60.652;2023-09-19T02:33:25;15.22;69.62
63899;HTU21D;50070;-32.946;-60.652;2023-09-19T02:35:56;15.47;67.24
63899;HTU21D;50070;-32.946;-60.652;2023-09-19T02:38:26;15.16;70.76
63899;HTU21D;50070;-32.946;-60.652;2023-09-19T02:40:53;14.79;74.25
63899;HTU21D;50070;-32.946;-60.652;2023-09-19T02:43:22;14.44;78.14
63899;HTU21D;50070;-32.946;-60.652;2023-09-19T02:45:49;14.45;77.66
63899;HTU21D;50070;-32.946;-60.652;2023-09-19T02:48:17;14.78;74.78
63899;HTU21D;50070;-32.946;-60.652;2023-09-19T02:50:44;14.59;76.63
63899;HTU21D;50070;-32.946;-60.652;2023-09-19T02:53:11;14.60;77.03
63899;HTU21D;50070;-32.946;-60.652;2023-09-19T02:55:39;14.82;75.12
63899;HTU21D;50070;-32.946;-60.652;2023-09-19T02:58:07;14.35;80.56
63899;HTU21D;50070;-32.946;-60.652;2023-09-19T03:00:34;14.18;82.75
63899;HTU21D;50070;-32.946;-60.652;2023-09-19T03:03:01;14.29;81.71
63899;HTU21D;50070;-32.946;-60.652;2023-09-19T03:05:28;14.72;76.89
63899;HTU21D;50070;-32.946;-60.652;2023-09-19T03:07:58;14.43;79.11
63899;HTU21D;50070;-32.946;-60.652;2023-09-19T03:10:27;14.15;82.75
63899;HTU21D;50070;-32.946;-60.652;2023-09-19T03:12:54;14.44;79.85
63899;HTU21D;50070;-32.946;-60.652;2023-09-19T03:15:21;14.34;81.05
63899;HTU21D;50070;-32.946;-60.652;2023-09-19T03:17:48;14.64;77.77
63899;HTU21D;50070;-32.946;-60.652;2023-09-19T03:20:15;14.29;81.42
63899;HTU21D;50070;-32.946;-60.652;2023-09-19T03:22:47;14.06;84.35
63899;HTU21D;50070;-32.946;-60.652;2023-09-19T03:25:14;14.44;80.82
63899;HTU21D;50070;-32.946;-60.652;2023-09-19T03:27:41;14.43;81.68
63899;HTU21D;50070;-32.946;-60.652;2023-09-19T03:30:08;14.45;81.21
63899;HTU21D;50070;-32.946;-60.652;2023-09-19T03:32:35;14.30;83.52
63899;HTU21D;50070;-32.946;-60.652;2023-09-19T03:35:04;14.07;86.81
63899;HTU21D;50070;-32.946;-60.652;2023-09-19T03:37:31;14.35;84.48
63899;HTU21D;50070;-32.946;-60.652;2023-09-19T03:39:59;14.21;85.91
63899;HTU21D;50070;-32.946;-60.652;2023-09-19T03:42:31;13.98;88.31
63899;HTU21D;50070;-32.946;-60.652;2023-09-19T03:44:58;13.64;91.83
63899;HTU21D;50070;-32.946;-60.652;2023-09-19T03:47:26;14.09;88.30
63899;HTU21D;50070;-32.946;-60.652;2023-09-19T03:49:53;14.07;88.32
63899;HTU21D;50070;-32.946;-60.652;2023-09-19T03:52:20;13.78;90.51
63899;HTU21D;50070;-32.946;-60.652;2023-09-19T03:54:47;14.08;88.01
63899;HTU21D;50070;-32.946;-60.652;2023-09-19T03:57:13;14.17;87.99
63899;HTU21D;50070;-32.946;-60.652;2023-09-19T03:59:43;13.98;89.50
63899;HTU21D;50070;-32.946;-60.652;2023-09-19T04:02:09;13.90;90.92
63899;HTU21D;50070;-32.946;-60.652;2023-09-19T04:04:51;13.64;93.43
63899;HTU21D;50070;-32.946;-60.652;2023-09-19T04:07:18;14.00;90.09
63899;HTU21D;50070;-32.946;-60.652;2023-09-19T04:09:48;14.01;89.55
63899;HTU21D;50070;-32.946;-60.652;2023-09-19T04:12:15;14.15;88.20
63899;HTU21D;50070;-32.946;-60.652;2023-09-19T04:14:45;14.07;88.56
63899;HTU21D;50070;-32.946;-60.652;2023-09-19T04:17:12;13.56;94.03
63899;HTU21D;50070;-32.946;-60.652;2023-09-19T04:19:39;13.69;93.26
63899;HTU21D;50070;-32.946;-60.652;2023-09-19T04:22:06;13.56;94.40
63899;HTU21D;50070;-32.946;-60.652;2023-09-19T04:24:33;13.40;96.32
63899;HTU21D;50070;-32.946;-60.652;2023-09-19T04:27:00;13.75;93.12
63899;HTU21D;50070;-32.946;-60.652;2023-09-19T04:29:27;13.89;91.82
63899;HTU21D;50070;-32.946;-60.652;2023-09-19T04:31:56;14.01;90.98
63899;HTU21D;50070;-32.946;-60.652;2023-09-19T04:34:26;13.66;94.22
63899;HTU21D;50070;-32.946;-60.652;2023-09-19T04:36:53;13.86;92.66
63899;HTU21D;50070;-32.946;-60.652;2023-09-19T04:39:20;13.92;92.26
63899;HTU21D;50070;-32.946;-60.652;2023-09-19T04:41:47;13.63;94.82
63899;HTU21D;50070;-32.946;-60.652;2023-09-19T04:44:14;13.43;97.44
63899;HTU21D;50070;-32.946;-60.652;2023-09-19T04:46:41;13.60;95.89
63899;HTU21D;50070;-32.946;-60.652;2023-09-19T04:49:08;13.83;93.17
63899;HTU21D;50070;-32.946;-60.652;2023-09-19T04:51:35;13.75;94.23
63899;HTU21D;50070;-32.946;-60.652;2023-09-19T04:54:02;13.20;99.49
63899;HTU21D;50070;-32.946;-60.652;2023-09-19T04:56:29;13.22;100.00
63899;HTU21D;50070;-32.946;-60.652;2023-09-19T04:58:57;13.44;98.24
63899;HTU21D;50070;-32.946;-60.652;2023-09-19T05:01:25;13.45;97.87
63899;HTU21D;50070;-32.946;-60.652;2023-09-19T05:03:52;13.29;99.38
63899;HTU21D;50070;-32.946;-60.652;2023-09-19T05:06:19;13.61;96.51
63899;HTU21D;50070;-32.946;-60.652;2023-09-19T05:08:49;13.18;100.55
63899;HTU21D;50070;-32.946;-60.652;2023-09-19T05:11:20;13.30;99.36
63899;HTU21D;50070;-32.946;-60.652;2023-09-19T05:13:48;13.50;98.18
63899;HTU21D;50070;-32.946;-60.652;2023-09-19T05:16:18;13.20;100.67
63899;HTU21D;50070;-32.946;-60.652;2023-09-19T05:18:45;13.12;101.76
63899;HTU21D;50070;-32.946;-60.652;2023-09-19T05:21:12;13.18;101.73
63899;HTU21D;50070;-32.946;-60.652;2023-09-19T05:23:39;13.55;98.36
63899;HTU21D;50070;-32.946;-60.652;2023-09-19T05:26:05;13.20;101.73
63899;HTU21D;50070;-32.946;-60.652;2023-09-19T05:28:32;13.47;99.41
63899;HTU21D;50070;-32.946;-60.652;2023-09-19T05:31:03;13.51;98.98
63899;HTU21D;50070;-32.946;-60.652;2023-09-19T05:33:30;13.54;98.68
63899;HTU21D;50070;-32.946;-60.652;2023-09-19T05:35:58;13.63;97.48
63899;HTU21D;50070;-32.946;-60.652;2023-09-19T05:38:24;13.17;102.35
63899;HTU21D;50070;-32.946;-60.652;2023-09-19T05:40:53;13.04;103.86
63899;HTU21D;50070;-32.946;-60.652;2023-09-19T05:43:20;13.19;103.22
63899;HTU21D;50070;-32.946;-60.652;2023-09-19T05:45:47;12.91;105.92
63899;HTU21D;50070;-32.946;-60.652;2023-09-19T05:48:14;12.93;106.46
63899;HTU21D;50070;-32.946;-60.652;2023-09-19T05:50:42;13.22;103.81
63899;HTU21D;50070;-32.946;-60.652;2023-09-19T05:53:09;12.97;105.85
63899;HTU21D;50070;-32.946;-60.652;2023-09-19T05:55:40;12.66;108.59
63899;HTU21D;50070;-32.946;-60.652;2023-09-19T05:58:07;13.18;104.31
63899;HTU21D;50070;-32.946;-60.652;2023-09-19T06:00:36;12.88;106.78
63899;HTU21D;50070;-32.946;-60.652;2023-09-19T06:03:03;12.86;107.30
63899;HTU21D;50070;-32.946;-60.652;2023-09-19T06:05:29;12.96;105.89
63899;HTU21D;50070;-32.946;-60.652;2023-09-19T06:07:59;12.82;107.54
63899;HTU21D;50070;-32.946;-60.652;2023-09-19T06:10:27;13.00;106.45
63899;HTU21D;50070;-32.946;-60.652;2023-09-19T06:12:54;13.01;106.56
63899;HTU21D;50070;-32.946;-60.652;2023-09-19T06:15:24;13.03;106.19
63899;HTU21D;50070;-32.946;-60.652;2023-09-19T06:17:53;12.61;110.24
63899;HTU21D;50070;-32.946;-60.652;2023-09-19T06:20:24;12.86;108.86
63899;HTU21D;50070;-32.946;-60.652;2023-09-19T06:22:52;12.86;108.75
63899;HTU21D;50070;-32.946;-60.652;2023-09-19T06:25:20;12.79;109.20
63899;HTU21D;50070;-32.946;-60.652;2023-09-19T06:27:52;12.74;110.39
63899;HTU21D;50070;-32.946;-60.652;2023-09-19T06:30:21;12.86;109.39
63899;HTU21D;50070;-32.946;-60.652;2023-09-19T06:32:55;12.73;111.29
63899;HTU21D;50070;-32.946;-60.652;2023-09-19T06:35:21;12.66;112.62
63899;HTU21D;50070;-32.946;-60.652;2023-09-19T06:37:48;12.80;110.98
63899;HTU21D;50070;-32.946;-60.652;2023-09-19T06:40:15;13.02;109.32
63899;HTU21D;50070;-32.946;-60.652;2023-09-19T06:42:47;13.02;109.07
63899;HTU21D;50070;-32.946;-60.652;2023-09-19T06:45:16;12.77;111.42
63899;HTU21D;50070;-32.946;-60.652;2023-09-19T06:47:49;12.90;110.42
63899;HTU21D;50070;-32.946;-60.652;2023-09-19T06:50:20;12.62;112.19
63899;HTU21D;50070;-32.946;-60.652;2023-09-19T06:52:48;12.94;109.88
63899;HTU21D;50070;-32.946;-60.652;2023-09-19T06:55:22;12.74;111.61
63899;HTU21D;50070;-32.946;-60.652;2023-09-19T06:57:57;12.86;110.36
63899;HTU21D;50070;-32.946;-60.652;2023-09-19T07:00:24;13.06;109.23
63899;HTU21D;50070;-32.946;-60.652;2023-09-19T07:03:07;12.70;112.16
63899;HTU21D;50070;-32.946;-60.652;2023-09-19T07:05:38;12.96;110.19
63899;HTU21D;50070;-32.946;-60.652;2023-09-19T07:08:09;12.69;112.10
63899;HTU21D;50070;-32.946;-60.652;2023-09-19T07:10:39;12.61;113.04
63899;HTU21D;50070;-32.946;-60.652;2023-09-19T07:13:07;12.70;112.34
63899;HTU21D;50070;-32.946;-60.652;2023-09-19T07:15:38;12.89;110.35
63899;HTU21D;50070;-32.946;-60.652;2023-09-19T07:18:07;12.58;112.66
63899;HTU21D;50070;-32.946;-60.652;2023-09-19T07:20:37;12.85;110.55
63899;HTU21D;50070;-32.946;-60.652;2023-09-19T07:23:05;12.82;110.50
63899;HTU21D;50070;-32.946;-60.652;2023-09-19T07:25:32;12.81;110.79
63899;HTU21D;50070;-32.946;-60.652;2023-09-19T07:27:59;12.87;110.23
63899;HTU21D;50070;-32.946;-60.652;2023-09-19T07:30:27;12.89;109.87
63899;HTU21D;50070;-32.946;-60.652;2023-09-19T07:32:54;12.72;111.29
63899;HTU21D;50070;-32.946;-60.652;2023-09-19T07:35:21;12.88;109.71
63899;HTU21D;50070;-32.946;-60.652;2023-09-19T07:37:48;12.95;109.37
63899;HTU21D;50070;-32.946;-60.652;2023-09-19T07:40:18;13.10;108.08
63899;HTU21D;50070;-32.946;-60.652;2023-09-19T07:42:46;13.15;107.77
63899;HTU21D;50070;-32.946;-60.652;2023-09-19T07:45:13;12.92;109.58
63899;HTU21D;50070;-32.946;-60.652;2023-09-19T07:47:44;12.89;109.91
63899;HTU21D;50070;-32.946;-60.652;2023-09-19T07:50:11;12.78;110.91
63899;HTU21D;50070;-32.946;-60.652;2023-09-19T07:52:38;13.05;108.32
63899;HTU21D;50070;-32.946;-60.652;2023-09-19T07:55:09;13.25;106.20
63899;HTU21D;50070;-32.946;-60.652;2023-09-19T07:57:37;13.29;105.88
63899;HTU21D;50070;-32.946;-60.652;2023-09-19T08:00:05;12.90;109.26
63899;HTU21D;50070;-32.946;-60.652;2023-09-19T08:02:36;13.20;106.73
63899;HTU21D;50070;-32.946;-60.652;2023-09-19T08:05:10;13.20;106.33
63899;HTU21D;50070;-32.946;-60.652;2023-09-19T08:07:38;12.86;109.22
63899;HTU21D;50070;-32.946;-60.652;2023-09-19T08:10:06;12.84;109.17
63899;HTU21D;50070;-32.946;-60.652;2023-09-19T08:12:42;12.74;109.92
63899;HTU21D;50070;-32.946;-60.652;2023-09-19T08:15:19;12.56;111.29
63899;HTU21D;50070;-32.946;-60.652;2023-09-19T08:17:47;12.62;110.34
63899;HTU21D;50070;-32.946;-60.652;2023-09-19T08:20:14;12.74;108.99
63899;HTU21D;50070;-32.946;-60.652;2023-09-19T08:22:52;12.70;109.48
63899;HTU21D;50070;-32.946;-60.652;2023-09-19T08:25:24;12.74;108.77
63899;HTU21D;50070;-32.946;-60.652;2023-09-19T08:27:55;12.58;110.14
63899;HTU21D;50070;-32.946;-60.652;2023-09-19T08:30:24;12.58;110.17
63899;HTU21D;50070;-32.946;-60.652;2023-09-19T08:33:00;12.17;113.47
63899;HTU21D;50070;-32.946;-60.652;2023-09-19T08:35:27;12.36;111.91
63899;HTU21D;50070;-32.946;-60.652;2023-09-19T08:37:54;12.44;111.16
63899;HTU21D;50070;-32.946;-60.652;2023-09-19T08:40:22;12.47;110.44
63899;HTU21D;50070;-32.946;-60.652;2023-09-19T08:42:54;12.30;111.92
63899;HTU21D;50070;-32.946;-60.652;2023-09-19T08:45:22;12.19;112.76
63899;HTU21D;50070;-32.946;-60.652;2023-09-19T08:48:19;12.47;110.79
63899;HTU21D;50070;-32.946;-60.652;2023-09-19T08:51:06;12.51;110.00
63899;HTU21D;50070;-32.946;-60.652;2023-09-19T08:53:43;12.64;109.54
63899;HTU21D;50070;-32.946;-60.652;2023-09-19T08:56:13;12.48;110.33
63899;HTU21D;50070;-32.946;-60.652;2023-09-19T08:58:53;12.53;110.10
63899;HTU21D;50070;-32.946;-60.652;2023-09-19T09:01:23;12.53;109.81
63899;HTU21D;50070;-32.946;-60.652;2023-09-19T09:03:56;12.42;111.22
63899;HTU21D;50070;-32.946;-60.652;2023-09-19T09:06:24;12.48;110.33
63899;HTU21D;50070;-32.946;-60.652;2023-09-19T09:08:52;12.36;111.55
63899;HTU21D;50070;-32.946;-60.652;2023-09-19T09:11:20;12.31;112.50
63899;HTU21D;50070;-32.946;-60.652;2023-09-19T09:13:47;12.50;110.78
63899;HTU21D;50070;-32.946;-60.652;2023-09-19T09:16:15;12.29;112.33
63899;HTU21D;50070;-32.946;-60.652;2023-09-19T09:18:45;12.20;113.45
63899;HTU21D;50070;-32.946;-60.652;2023-09-19T09:21:18;12.44;111.06
63899;HTU21D;50070;-32.946;-60.652;2023-09-19T09:23:49;12.12;114.08
63899;HTU21D;50070;-32.946;-60.652;2023-09-19T09:26:19;12.12;114.45
63899;HTU21D;50070;-32.946;-60.652;2023-09-19T09:29:04;11.90;116.21
63899;HTU21D;50070;-32.946;-60.652;2023-09-19T09:31:30;12.08;115.60
63899;HTU21D;50070;-32.946;-60.652;2023-09-19T09:33:57;11.93;116.95
63899;HTU21D;50070;-32.946;-60.652;2023-09-19T09:36:35;12.02;116.44
63899;HTU21D;50070;-32.946;-60.652;2023-09-19T09:39:03;12.32;114.38
63899;HTU21D;50070;-32.946;-60.652;2023-09-19T09:41:42;12.46;113.03
63899;HTU21D;50070;-32.946;-60.652;2023-09-19T09:44:16;12.18;115.70
63899;HTU21D;50070;-32.946;-60.652;2023-09-19T09:46:45;12.29;115.11
63899;HTU21D;50070;-32.946;-60.652;2023-09-19T09:49:40;12.31;114.87
63899;HTU21D;50070;-32.946;-60.652;2023-09-19T09:52:20;12.40;114.64
63899;HTU21D;50070;-32.946;-60.652;2023-09-19T09:55:19;12.35;114.87
63899;HTU21D;50070;-32.946;-60.652;2023-09-19T09:57:46;12.60;112.73
63899;HTU21D;50070;-32.946;-60.652;2023-09-19T10:00:15;12.36;115.25
63899;HTU21D;50070;-32.946;-60.652;2023-09-19T10:02:45;12.35;115.53
63899;HTU21D;50070;-32.946;-60.652;2023-09-19T10:05:20;12.60;113.68
63899;HTU21D;50070;-32.946;-60.652;2023-09-19T10:07:50;12.74;112.37
63899;HTU21D;50070;-32.946;-60.652;2023-09-19T10:10:32;12.61;112.99
63899;HTU21D;50070;-32.946;-60.652;2023-09-19T10:13:15;12.61;113.64
63899;HTU21D;50070;-32.946;-60.652;2023-09-19T10:15:47;12.35;115.32
63899;HTU21D;50070;-32.946;-60.652;2023-09-19T10:18:23;12.28;116.47
63899;HTU21D;50070;-32.946;-60.652;2023-09-19T10:20:50;12.44;115.16
63899;HTU21D;50070;-32.946;-60.652;2023-09-19T10:23:21;12.44;115.48
63899;HTU21D;50070;-32.946;-60.652;2023-09-19T10:25:52;12.37;116.27
63899;HTU21D;50070;-32.946;-60.652;2023-09-19T10:28:20;12.58;114.86
63899;HTU21D;50070;-32.946;-60.652;2023-09-19T10:30:51;12.50;115.24
63899;HTU21D;50070;-32.946;-60.652;2023-09-19T10:33:23;12.41;116.94
63899;HTU21D;50070;-32.946;-60.652;2023-09-19T10:35:53;12.43;116.62
63899;HTU21D;50070;-32.946;-60.652;2023-09-19T10:38:25;12.45;116.55
63899;HTU21D;50070;-32.946;-60.652;2023-09-19T10:40:54;12.47;116.64
63899;HTU21D;50070;-32.946;-60.652;2023-09-19T10:43:29;12.46;117.09
63899;HTU21D;50070;-32.946;-60.652;2023-09-19T10:46:01;12.72;115.28
63899;HTU21D;50070;-32.946;-60.652;2023-09-19T10:48:32;12.94;114.03
63899;HTU21D;50070;-32.946;-60.652;2023-09-19T10:51:16;12.71;115.41
63899;HTU21D;50070;-32.946;-60.652;2023-09-19T10:56:30;13.03;113.54
63899;HTU21D;50070;-32.946;-60.652;2023-09-19T10:59:09;12.81;115.08
63899;HTU21D;50070;-32.946;-60.652;2023-09-19T11:01:49;12.87;114.44
63899;HTU21D;50070;-32.946;-60.652;2023-09-19T11:07:08;12.69;116.51
63899;HTU21D;50070;-32.946;-60.652;2023-09-19T11:09:54;12.72;116.52
63899;HTU21D;50070;-32.946;-60.652;2023-09-19T11:15:03;13.03;114.25
63899;HTU21D;50070;-32.946;-60.652;2023-09-19T11:17:38;12.91;114.06
63899;HTU21D;50070;-32.946;-60.652;2023-09-19T11:30:36;13.10;110.61
63899;HTU21D;50070;-32.946;-60.652;2023-09-19T11:33:23;13.04;110.90
63899;HTU21D;50070;-32.946;-60.652;2023-09-19T11:36:14;13.23;110.00
63899;HTU21D;50070;-32.946;-60.652;2023-09-19T11:46:33;13.29;111.00
63899;HTU21D;50070;-32.946;-60.652;2023-09-19T11:49:08;13.41;110.55
63899;HTU21D;50070;-32.946;-60.652;2023-09-19T11:51:43;13.48;110.38
63899;HTU21D;50070;-32.946;-60.652;2023-09-19T11:54:15;13.37;112.00
63899;HTU21D;50070;-32.946;-60.652;2023-09-19T11:56:52;13.43;111.32
63899;HTU21D;50070;-32.946;-60.652;2023-09-19T11:59:31;13.37;112.04
63899;HTU21D;50070;-32.946;-60.652;2023-09-19T12:02:06;13.29;112.62
63899;HTU21D;50070;-32.946;-60.652;2023-09-19T12:07:09;13.52;111.29
63899;HTU21D;50070;-32.946;-60.652;2023-09-19T12:09:43;13.58;110.59
63899;HTU21D;50070;-32.946;-60.652;2023-09-19T12:12:11;13.60;110.57
63899;HTU21D;50070;-32.946;-60.652;2023-09-19T12:14:55;13.37;111.74
63899;HTU21D;50070;-32.946;-60.652;2023-09-19T12:17:46;13.41;111.62
63899;HTU21D;50070;-32.946;-60.652;2023-09-19T12:20:14;13.58;111.23
63899;HTU21D;50070;-32.946;-60.652;2023-09-19T12:22:43;13.69;110.46
63899;HTU21D;50070;-32.946;-60.652;2023-09-19T12:25:12;13.69;110.98
63899;HTU21D;50070;-32.946;-60.652;2023-09-19T12:27:46;13.86;109.50
63899;HTU21D;50070;-32.946;-60.652;2023-09-19T12:30:14;13.91;108.94
63899;HTU21D;50070;-32.946;-60.652;2023-09-19T12:32:41;14.08;107.85
63899;HTU21D;50070;-32.946;-60.652;2023-09-19T12:35:08;14.23;107.08
63899;HTU21D;50070;-32.946;-60.652;2023-09-19T12:37:42;13.96;110.04
63899;HTU21D;50070;-32.946;-60.652;2023-09-19T12:40:14;14.22;108.30
63899;HTU21D;50070;-32.946;-60.652;2023-09-19T12:42:47;14.12;109.60
63899;HTU21D;50070;-32.946;-60.652;2023-09-19T12:45:15;14.33;108.53
63899;HTU21D;50070;-32.946;-60.652;2023-09-19T12:48:20;14.18;109.46
63899;HTU21D;50070;-32.946;-60.652;2023-09-19T12:51:07;14.54;107.09
63899;HTU21D;50070;-32.946;-60.652;2023-09-19T12:53:42;14.35;108.66
63899;HTU21D;50070;-32.946;-60.652;2023-09-19T12:56:11;14.68;106.24
63899;HTU21D;50070;-32.946;-60.652;2023-09-19T12:58:56;14.49;107.53
63899;HTU21D;50070;-32.946;-60.652;2023-09-19T13:01:27;14.45;108.34
63899;HTU21D;50070;-32.946;-60.652;2023-09-19T13:06:39;14.80;105.92
63899;HTU21D;50070;-32.946;-60.652;2023-09-19T13:09:10;14.99;104.62
63899;HTU21D;50070;-32.946;-60.652;2023-09-19T13:11:38;15.02;103.68
63899;HTU21D;50070;-32.946;-60.652;2023-09-19T13:17:12;14.57;107.85
63899;HTU21D;50070;-32.946;-60.652;2023-09-19T13:19:51;15.12;104.38
63899;HTU21D;50070;-32.946;-60.652;2023-09-19T13:22:44;15.25;102.23
63899;HTU21D;50070;-32.946;-60.652;2023-09-19T13:25:21;15.42;100.83
63899;HTU21D;50070;-32.946;-60.652;2023-09-19T13:27:54;15.34;102.06
63899;HTU21D;50070;-32.946;-60.652;2023-09-19T13:30:26;15.40;102.64
63899;HTU21D;50070;-32.946;-60.652;2023-09-19T13:33:04;15.43;102.16
63899;HTU21D;50070;-32.946;-60.652;2023-09-19T13:35:32;15.06;105.50
63899;HTU21D;50070;-32.946;-60.652;2023-09-19T13:37:59;15.39;102.15
63899;HTU21D;50070;-32.946;-60.652;2023-09-19T13:40:26;15.38;101.38
63899;HTU21D;50070;-32.946;-60.652;2023-09-19T13:42:56;15.48;100.86
63899;HTU21D;50070;-32.946;-60.652;2023-09-19T13:45:23;15.48;101.88
63899;HTU21D;50070;-32.946;-60.652;2023-09-19T13:47:53;15.68;100.21
63899;HTU21D;50070;-32.946;-60.652;2023-09-19T13:50:23;15.72;98.99
63899;HTU21D;50070;-32.946;-60.652;2023-09-19T13:52:50;15.73;99.60
63899;HTU21D;50070;-32.946;-60.652;2023-09-19T13:55:18;15.77;99.55
63899;HTU21D;50070;-32.946;-60.652;2023-09-19T13:57:48;15.86;99.06
63899;HTU21D;50070;-32.946;-60.652;2023-09-19T14:00:21;16.06;96.72
63899;HTU21D;50070;-32.946;-60.652;2023-09-19T14:02:49;16.01;97.38
63899;HTU21D;50070;-32.946;-60.652;2023-09-19T14:05:17;16.11;96.71
63899;HTU21D;50070;-32.946;-60.652;2023-09-19T14:07:45;16.19;96.58
63899;HTU21D;50070;-32.946;-60.652;2023-09-19T14:10:12;16.22;96.28
63899;HTU21D;50070;-32.946;-60.652;2023-09-19T14:12:39;16.31;95.74
63899;HTU21D;50070;-32.946;-60.652;2023-09-19T14:15:11;16.21;96.87
63899;HTU21D;50070;-32.946;-60.652;2023-09-19T14:17:38;15.81;100.85
63899;HTU21D;50070;-32.946;-60.652;2023-09-19T14:20:08;15.87;100.58
63899;HTU21D;50070;-32.946;-60.652;2023-09-19T14:22:36;16.00;99.74
63899;HTU21D;50070;-32.946;-60.652;2023-09-19T14:25:04;16.57;94.14
63899;HTU21D;50070;-32.946;-60.652;2023-09-19T14:27:31;16.67;93.85
63899;HTU21D;50070;-32.946;-60.652;2023-09-19T14:29:58;16.63;94.29
63899;HTU21D;50070;-32.946;-60.652;2023-09-19T14:32:24;16.88;91.25
63899;HTU21D;50070;-32.946;-60.652;2023-09-19T14:34:52;16.95;91.21
63899;HTU21D;50070;-32.946;-60.652;2023-09-19T14:37:18;17.07;90.12
63899;HTU21D;50070;-32.946;-60.652;2023-09-19T14:39:47;16.87;91.03
63899;HTU21D;50070;-32.946;-60.652;2023-09-19T14:42:14;16.77;91.38
63899;HTU21D;50070;-32.946;-60.652;2023-09-19T14:44:44;16.49;94.27
63899;HTU21D;50070;-32.946;-60.652;2023-09-19T14:47:10;16.74;92.47
63899;HTU21D;50070;-32.946;-60.652;2023-09-19T14:49:39;16.61;94.30
63899;HTU21D;50070;-32.946;-60.652;2023-09-19T14:52:11;16.87;92.27
63899;HTU21D;50070;-32.946;-60.652;2023-09-19T14:54:41;16.81;93.15
63899;HTU21D;50070;-32.946;-60.652;2023-09-19T14:57:08;16.60;95.84
63899;HTU21D;50070;-32.946;-60.652;2023-09-19T14:59:36;16.42;96.99
63899;HTU21D;50070;-32.946;-60.652;2023-09-19T15:02:06;16.47;96.96
63899;HTU21D;50070;-32.946;-60.652;2023-09-19T15:04:33;16.46;96.93
63899;HTU21D;50070;-32.946;-60.652;2023-09-19T15:07:00;16.67;94.96
63899;HTU21D;50070;-32.946;-60.652;2023-09-19T15:09:27;16.85;93.81
63899;HTU21D;50070;-32.946;-60.652;2023-09-19T15:11:54;16.60;96.06
63899;HTU21D;50070;-32.946;-60.652;2023-09-19T15:14:22;16.62;96.30
63899;HTU21D;50070;-32.946;-60.652;2023-09-19T15:16:50;16.39;98.10
63899;HTU21D;50070;-32.946;-60.652;2023-09-19T15:19:17;16.50;97.52
63899;HTU21D;50070;-32.946;-60.652;2023-09-19T15:21:44;16.63;96.50
63899;HTU21D;50070;-32.946;-60.652;2023-09-19T15:24:11;17.10;92.63
63899;HTU21D;50070;-32.946;-60.652;2023-09-19T15:26:37;17.10;91.82
63899;HTU21D;50070;-32.946;-60.652;2023-09-19T15:29:10;16.92;93.92
63899;HTU21D;50070;-32.946;-60.652;2023-09-19T15:31:36;16.92;94.90
63899;HTU21D;50070;-32.946;-60.652;2023-09-19T15:34:04;16.78;95.80